EXT weather

Exeter International Airport
Exeter, England, United Kingdom

Public forecast

Using degrees Celsius for public forecast. Weather courtesy of forecast.io.

Current aviation weather report (METAR) for Exeter International Airport

Retrieved 2019/10/22 13:20 UTC (59 seconds ago):

EGTE 221320Z 12004KT 9999 FEW025 14/11 Q1022

Aviation forecast (TAF) for Exeter International Airport

Forecast is more than 12 hours old.

Retrieved 2012/04/19 12:15 UTC (8 years ago):

TAF TAF EGTE 191401Z 1912/1924 31016KT 9999 SCT030 SCT035 PROB40 TEMPO 1915/1918 7000 SHRA BKN014